Time;durP1;ratioP1;P1;durP2;ratioP2;P2;SDS_P1;SDS_P2;PMS_P1;PMS_P2;Temp;Humidity;BMP_temperature;BMP_pressure;BME280_temperature;BME280_humidity;BME280_pressure;Samples;Min_cycle;Max_cycle;Signal;HPM_P1;HPM_P2
2023/10/05 00:01:20;;;;;;;10.32;1.83;;;13.90;99.90;;;;;;5055195;28;20043;-79
2023/10/05 00:03:51;;;;;;;7.45;1.77;;;13.80;99.90;;;;;;5056034;28;20045;-79
2023/10/05 00:06:23;;;;;;;7.88;1.60;;;13.90;99.90;;;;;;5055058;28;20589;-79
2023/10/05 00:08:49;;;;;;;8.50;2.00;;;13.90;99.90;;;;;;5056167;28;20044;-79
2023/10/05 00:14:12;;;;;;;9.93;2.13;;;13.90;99.90;;;;;;5050811;28;20036;-80
2023/10/05 00:16:38;;;;;;;8.82;1.95;;;13.80;99.90;;;;;;5054985;28;20051;-80
2023/10/05 00:19:09;;;;;;;10.80;1.98;;;13.90;99.90;;;;;;5055246;28;20459;-79
2023/10/05 00:21:35;;;;;;;11.18;2.17;;;13.80;99.90;;;;;;5054942;28;20439;-80
2023/10/05 00:24:02;;;;;;;10.68;1.88;;;13.90;99.90;;;;;;5069760;28;20040;-80
2023/10/05 00:26:30;;;;;;;10.20;2.47;;;13.90;99.90;;;;;;5054206;28;20087;-80
2023/10/05 00:31:41;;;;;;;10.05;2.15;;;13.90;99.90;;;;;;5071424;28;20451;-80
2023/10/05 00:34:24;;;;;;;7.18;1.75;;;13.90;99.90;;;;;;5070787;28;20400;-80
2023/10/05 00:36:53;;;;;;;4.15;1.63;;;13.90;99.90;;;;;;5071609;28;20048;-79
2023/10/05 00:39:20;;;;;;;8.18;1.63;;;13.90;99.90;;;;;;5055586;28;20090;-80
2023/10/05 00:42:08;;;;;;;8.10;2.30;;;13.90;99.90;;;;;;5071046;28;20083;-79
2023/10/05 00:44:36;;;;;;;9.68;1.70;;;14.00;99.90;;;;;;5054920;28;20040;-79
2023/10/05 00:47:06;;;;;;;10.95;1.75;;;14.00;99.90;;;;;;5070900;28;20563;-80
2023/10/05 00:49:45;;;;;;;6.68;1.60;;;13.90;99.90;;;;;;5071437;28;20044;-80
2023/10/05 00:52:15;;;;;;;10.85;2.10;;;14.00;99.90;;;;;;5065584;28;20044;-79
2023/10/05 00:54:51;;;;;;;8.32;2.00;;;13.90;99.90;;;;;;5067845;28;20089;-79
2023/10/05 00:57:23;;;;;;;4.53;1.50;;;13.90;99.90;;;;;;5059318;28;20057;-79
2023/10/05 01:00:26;;;;;;;8.18;1.88;;;13.80;99.90;;;;;;5053790;28;20072;-79
2023/10/05 01:02:39;;;;;;;4.78;1.17;;;13.90;99.90;;;;;;5062188;28;20079;-80
2023/10/05 01:05:15;;;;;;;9.95;2.08;;;13.90;99.90;;;;;;5059933;28;20043;-80
2023/10/05 01:10:28;;;;;;;7.65;1.75;;;13.90;99.90;;;;;;5071302;28;19916;-80
2023/10/05 01:12:54;;;;;;;10.73;1.90;;;13.90;99.90;;;;;;5069690;28;20041;-80
2023/10/05 01:15:32;;;;;;;9.75;1.80;;;14.00;99.90;;;;;;5062658;28;20382;-80
2023/10/05 01:17:58;;;;;;;8.70;2.15;;;13.90;99.90;;;;;;5063037;28;20075;-80
2023/10/05 01:20:25;;;;;;;7.63;1.70;;;13.90;99.90;;;;;;5069936;28;20492;-80
2023/10/05 01:22:55;;;;;;;8.63;1.95;;;14.00;99.90;;;;;;5052375;28;20435;-79
2023/10/05 01:25:21;;;;;;;7.82;1.70;;;13.90;99.90;;;;;;5054260;28;20099;-79
2023/10/05 01:27:51;;;;;;;10.07;1.85;;;13.90;99.90;;;;;;5042659;28;20708;-79
2023/10/05 01:30:17;;;;;;;9.38;1.98;;;14.00;99.90;;;;;;5067226;28;21484;-79
2023/10/05 01:32:44;;;;;;;9.60;1.80;;;14.00;99.90;;;;;;5054072;28;20459;-79
2023/10/05 01:35:14;;;;;;;7.25;1.98;;;14.00;99.90;;;;;;5049531;28;20081;-79
2023/10/05 01:37:41;;;;;;;7.70;2.10;;;13.90;99.90;;;;;;5072477;28;20119;-79
2023/10/05 01:40:20;;;;;;;10.25;1.67;;;13.90;99.90;;;;;;5073607;28;20366;-79
2023/10/05 01:42:51;;;;;;;7.97;1.90;;;13.90;99.90;;;;;;5055691;28;20505;-79
2023/10/05 01:45:34;;;;;;;8.03;2.00;;;13.90;99.90;;;;;;5072591;28;20075;-80
2023/10/05 01:48:12;;;;;;;5.63;1.55;;;13.90;99.90;;;;;;5057778;28;20326;-79
2023/10/05 01:50:39;;;;;;;8.32;1.77;;;14.00;99.90;;;;;;5055323;28;20124;-80
2023/10/05 01:55:36;;;;;;;8.38;2.15;;;13.90;99.90;;;;;;5069640;28;20458;-80
2023/10/05 01:58:26;;;;;;;8.88;1.80;;;13.90;99.90;;;;;;5062733;28;20120;-80
2023/10/05 02:00:48;;;;;;;9.52;1.80;;;13.90;99.90;;;;;;5067609;28;20181;-80
2023/10/05 02:03:14;;;;;;;10.20;1.92;;;13.90;99.90;;;;;;5058406;28;20143;-80
2023/10/05 02:05:39;;;;;;;6.28;1.60;;;13.90;99.90;;;;;;5062401;28;20041;-80
2023/10/05 02:08:05;;;;;;;8.70;1.85;;;13.90;99.90;;;;;;5074881;28;20484;-81
2023/10/05 02:10:39;;;;;;;8.50;1.85;;;13.90;99.90;;;;;;5055793;28;20041;-80
2023/10/05 02:13:12;;;;;;;7.68;2.15;;;13.90;99.90;;;;;;5074129;28;20036;-80
2023/10/05 02:15:41;;;;;;;8.88;1.70;;;13.90;99.90;;;;;;5055737;28;20036;-80
2023/10/05 02:18:21;;;;;;;8.27;1.70;;;13.90;99.90;;;;;;5074701;28;20036;-80
2023/10/05 02:20:51;;;;;;;6.47;1.85;;;13.90;99.90;;;;;;5072051;28;20089;-79
2023/10/05 02:23:24;;;;;;;6.28;2.08;;;13.90;99.90;;;;;;5081054;28;20041;-80
2023/10/05 02:25:56;;;;;;;11.07;1.95;;;13.90;99.90;;;;;;5048689;28;20068;-80
2023/10/05 02:28:33;;;;;;;9.82;2.10;;;13.90;99.90;;;;;;5072950;28;20037;-79
2023/10/05 02:30:59;;;;;;;10.98;2.33;;;13.90;99.90;;;;;;5072853;28;20052;-79
2023/10/05 02:33:32;;;;;;;9.00;1.75;;;13.90;99.90;;;;;;5053808;28;20029;-80
2023/10/05 02:36:21;;;;;;;7.95;2.00;;;13.90;99.90;;;;;;5070543;28;20036;-80
2023/10/05 02:38:53;;;;;;;7.95;2.28;;;13.90;99.90;;;;;;5057106;28;20036;-79
2023/10/05 02:41:37;;;;;;;8.75;1.85;;;13.80;99.90;;;;;;5072324;28;20037;-80
2023/10/05 02:44:08;;;;;;;7.70;1.75;;;13.90;99.90;;;;;;5056654;28;20040;-80
2023/10/05 02:46:33;;;;;;;9.38;2.63;;;13.90;99.90;;;;;;5059193;28;20044;-79
2023/10/05 02:48:59;;;;;;;7.13;1.80;;;13.90;99.90;;;;;;5090586;28;20401;-79
2023/10/05 02:51:25;;;;;;;6.88;2.05;;;14.00;99.90;;;;;;5076517;28;20037;-80
2023/10/05 02:53:56;;;;;;;7.32;1.70;;;13.90;99.90;;;;;;5055044;28;20108;-80
2023/10/05 02:56:26;;;;;;;8.32;2.05;;;13.90;99.90;;;;;;5064984;28;20069;-79
2023/10/05 02:58:54;;;;;;;6.70;1.70;;;14.00;99.90;;;;;;5054874;28;20408;-79
2023/10/05 03:01:21;;;;;;;8.98;2.30;;;14.00;99.90;;;;;;5039376;28;20104;-80
2023/10/05 03:03:47;;;;;;;8.95;2.15;;;13.90;99.90;;;;;;5054091;28;20045;-80
2023/10/05 03:06:15;;;;;;;7.65;1.88;;;13.90;99.90;;;;;;5055879;28;20044;-79
2023/10/05 03:08:41;;;;;;;10.13;1.90;;;13.90;99.90;;;;;;5063200;28;20044;-79
2023/10/05 03:11:08;;;;;;;8.57;2.22;;;13.90;99.90;;;;;;5056910;28;20039;-79
2023/10/05 03:13:38;;;;;;;9.18;2.00;;;13.90;99.90;;;;;;5054972;28;20051;-79
2023/10/05 03:16:09;;;;;;;10.77;1.90;;;13.90;99.90;;;;;;5065636;28;20072;-79
2023/10/05 03:18:37;;;;;;;7.50;2.47;;;13.90;99.90;;;;;;5061652;28;20043;-79
2023/10/05 03:21:09;;;;;;;8.90;2.28;;;13.90;99.90;;;;;;5060649;28;20043;-79
2023/10/05 03:23:35;;;;;;;;;;;13.90;99.90;;;;;;5070861;28;20033;-79
2023/10/05 03:26:00;;;;;;;9.18;2.00;;;13.90;99.90;;;;;;5055057;28;19946;-79
2023/10/05 03:28:27;;;;;;;7.95;2.13;;;13.90;99.90;;;;;;5055258;28;20086;-79
2023/10/05 03:30:53;;;;;;;7.38;1.80;;;13.90;99.90;;;;;;5053941;28;20025;-79
2023/10/05 03:33:23;;;;;;;9.02;2.10;;;13.80;99.90;;;;;;5056565;28;20098;-79
2023/10/05 03:35:49;;;;;;;7.50;2.05;;;13.80;99.90;;;;;;5066221;28;20044;-79
2023/10/05 03:38:19;;;;;;;8.45;2.00;;;13.80;99.90;;;;;;5054282;28;20037;-79
2023/10/05 03:40:47;;;;;;;8.98;2.00;;;13.80;99.90;;;;;;5079475;28;20374;-79
2023/10/05 03:43:13;;;;;;;7.93;2.20;;;13.80;99.90;;;;;;5037300;28;20127;-79
2023/10/05 03:45:39;;;;;;;8.70;2.13;;;13.80;99.90;;;;;;5057884;28;20123;-79
2023/10/05 03:48:05;;;;;;;6.57;2.20;;;13.70;99.90;;;;;;5072904;28;20144;-79
2023/10/05 03:50:31;;;;;;;9.50;2.20;;;13.80;99.90;;;;;;5071348;28;20501;-79
2023/10/05 03:52:57;;;;;;;9.07;2.08;;;13.70;99.90;;;;;;5053573;28;20503;-79
2023/10/05 03:55:24;;;;;;;7.97;1.95;;;13.80;99.90;;;;;;5061524;28;20052;-79
2023/10/05 03:57:50;;;;;;;8.50;2.05;;;13.80;99.90;;;;;;5062377;28;20404;-79
2023/10/05 04:02:49;;;;;;;8.48;1.67;;;13.80;99.90;;;;;;5067023;28;20056;-79
2023/10/05 04:05:18;;;;;;;12.65;2.13;;;13.80;99.90;;;;;;5055486;28;20052;-79
2023/10/05 04:07:44;;;;;;;10.50;2.78;;;13.70;99.90;;;;;;5052571;28;20040;-79
2023/10/05 04:10:14;;;;;;;8.50;1.80;;;13.80;99.90;;;;;;5038260;28;20382;-79
2023/10/05 04:12:40;;;;;;;9.60;2.00;;;13.80;99.90;;;;;;5053822;28;20047;-79
2023/10/05 04:15:11;;;;;;;8.93;1.77;;;13.80;99.90;;;;;;5054243;28;20115;-79
2023/10/05 04:17:38;;;;;;;9.13;1.90;;;13.90;99.90;;;;;;5069612;28;20051;-79
2023/10/05 04:20:50;;;;;;;8.05;1.83;;;13.90;99.90;;;;;;5071564;28;20076;-79
2023/10/05 04:22:50;;;;;;;7.30;1.70;;;13.90;99.90;;;;;;5055960;28;20208;-79
2023/10/05 04:25:16;;;;;;;8.52;2.20;;;13.90;99.90;;;;;;5069544;28;20127;-79
2023/10/05 04:27:48;;;;;;;8.85;2.05;;;13.90;99.90;;;;;;5068859;28;20180;-79
2023/10/05 04:30:18;;;;;;;;;;;13.90;99.90;;;;;;5054554;28;20041;-79
2023/10/05 04:32:44;;;;;;;8.85;1.98;;;13.90;99.90;;;;;;5048370;28;19916;-79
2023/10/05 04:35:29;;;;;;;7.70;1.90;;;14.00;99.90;;;;;;5060607;28;20039;-79
2023/10/05 04:37:56;;;;;;;8.93;1.85;;;13.90;99.90;;;;;;5069833;28;20050;-79
2023/10/05 04:40:25;;;;;;;8.90;2.20;;;13.90;99.90;;;;;;5088197;28;20492;-79
2023/10/05 04:42:51;;;;;;;11.48;2.28;;;13.90;99.90;;;;;;5054581;28;20511;-79
2023/10/05 04:45:17;;;;;;;10.55;2.30;;;13.90;99.90;;;;;;5053846;28;20133;-79
2023/10/05 04:47:45;;;;;;;8.68;2.08;;;13.80;99.90;;;;;;5070809;28;20127;-79
2023/10/05 04:50:15;;;;;;;8.70;2.05;;;13.90;99.90;;;;;;5054656;28;20036;-79
2023/10/05 04:52:41;;;;;;;10.10;2.33;;;13.80;99.90;;;;;;5070714;28;20047;-79
2023/10/05 04:55:30;;;;;;;12.05;2.47;;;13.80;99.90;;;;;;5057615;28;20117;-79
2023/10/05 04:58:14;;;;;;;8.48;1.85;;;13.80;99.90;;;;;;5051892;28;20134;-79
2023/10/05 05:08:34;;;;;;;8.43;1.75;;;13.80;99.90;;;;;;5072117;28;20048;-79
2023/10/05 05:11:00;;;;;;;12.93;2.08;;;13.90;99.90;;;;;;5071736;28;20032;-79
2023/10/05 05:13:28;;;;;;;12.13;2.45;;;13.90;99.90;;;;;;5061693;28;20044;-79
2023/10/05 05:15:55;;;;;;;9.95;2.10;;;13.80;99.90;;;;;;5071880;28;20496;-79
2023/10/05 05:18:21;;;;;;;8.82;1.83;;;13.80;99.90;;;;;;5078398;28;20059;-79
2023/10/05 05:20:47;;;;;;;11.45;2.50;;;13.90;99.90;;;;;;5085589;28;20037;-79
2023/10/05 05:23:16;;;;;;;11.38;2.10;;;13.90;99.90;;;;;;5041794;28;20445;-79
2023/10/05 05:25:44;;;;;;;11.32;2.50;;;13.90;99.90;;;;;;5066853;28;20036;-79
2023/10/05 05:28:09;;;;;;;8.45;2.08;;;13.90;99.90;;;;;;5075912;28;20039;-79
2023/10/05 05:30:39;;;;;;;11.80;2.33;;;13.90;99.90;;;;;;5060248;28;20040;-79
2023/10/05 05:33:10;;;;;;;10.77;2.15;;;13.90;99.90;;;;;;5058214;28;20124;-79
2023/10/05 05:35:43;;;;;;;9.32;1.90;;;13.90;99.90;;;;;;5046114;28;20039;-79
2023/10/05 05:38:11;;;;;;;10.77;2.03;;;13.90;99.90;;;;;;5073598;28;20045;-79
2023/10/05 05:40:40;;;;;;;9.65;2.05;;;13.90;99.90;;;;;;5059187;28;20037;-79
2023/10/05 05:43:11;;;;;;;13.55;2.15;;;13.90;99.90;;;;;;5075128;28;20107;-79
2023/10/05 05:45:42;;;;;;;9.98;1.85;;;13.90;99.90;;;;;;5086724;28;20059;-79
2023/10/05 05:48:09;;;;;;;10.55;2.25;;;13.80;99.90;;;;;;5071222;28;20412;-79
2023/10/05 05:50:39;;;;;;;12.98;3.20;;;13.80;99.90;;;;;;5060281;28;20037;-79
2023/10/05 05:53:06;;;;;;;10.93;4.25;;;13.90;99.90;;;;;;5056702;28;20132;-79
2023/10/05 05:55:32;;;;;;;9.63;2.22;;;13.90;99.90;;;;;;5072282;28;20462;-79
2023/10/05 05:57:59;;;;;;;11.98;2.45;;;13.90;99.90;;;;;;5075407;28;20205;-79
2023/10/05 06:00:28;;;;;;;9.32;2.30;;;14.00;99.90;;;;;;5061645;28;20393;-83
2023/10/05 06:02:53;;;;;;;10.63;2.03;;;14.00;99.90;;;;;;5060277;28;20050;-79
2023/10/05 06:05:22;;;;;;;10.88;2.00;;;14.00;99.90;;;;;;5060426;28;20548;-79
2023/10/05 06:07:50;;;;;;;10.40;2.05;;;13.90;99.90;;;;;;5060419;28;20045;-79
2023/10/05 06:10:16;;;;;;;10.77;2.25;;;14.00;99.90;;;;;;5060703;28;20032;-79
2023/10/05 06:12:43;;;;;;;10.15;2.50;;;14.10;99.90;;;;;;5055918;28;20674;-80
2023/10/05 06:15:15;;;;;;;9.73;1.67;;;14.10;99.90;;;;;;5076547;28;20033;-80
2023/10/05 06:17:43;;;;;;;9.93;2.25;;;14.00;99.90;;;;;;5094918;28;20040;-79
2023/10/05 06:20:16;;;;;;;12.63;2.42;;;14.00;99.90;;;;;;5077665;28;20404;-79
2023/10/05 06:22:45;;;;;;;9.57;2.42;;;14.00;99.90;;;;;;5074407;28;20048;-79
2023/10/05 06:25:17;;;;;;;8.85;1.90;;;14.00;99.90;;;;;;5073790;28;20055;-79
2023/10/05 06:27:44;;;;;;;12.45;2.63;;;14.10;99.90;;;;;;5073834;28;20455;-79
2023/10/05 06:30:13;;;;;;;10.55;2.65;;;14.10;99.90;;;;;;5072586;28;20029;-79
2023/10/05 06:32:40;;;;;;;7.75;2.10;;;14.10;99.90;;;;;;5074138;28;20043;-79
2023/10/05 06:35:08;;;;;;;13.85;2.22;;;14.00;99.90;;;;;;5087822;28;20039;-79
2023/10/05 06:37:34;;;;;;;12.13;2.45;;;14.10;99.90;;;;;;5057594;28;20503;-79
2023/10/05 06:40:00;;;;;;;12.60;2.70;;;14.10;99.90;;;;;;5072754;28;20133;-79
2023/10/05 06:42:26;;;;;;;8.95;2.58;;;14.20;99.90;;;;;;5055736;28;20172;-79
2023/10/05 06:44:52;;;;;;;10.55;2.70;;;14.20;99.90;;;;;;5072782;28;20080;-79
2023/10/05 06:47:36;;;;;;;11.15;2.65;;;14.20;99.90;;;;;;5044171;28;20083;-79
2023/10/05 06:50:09;;;;;;;11.50;2.40;;;14.30;99.90;;;;;;5055812;28;20485;-77
2023/10/05 06:52:39;;;;;;;10.23;2.50;;;14.30;99.90;;;;;;5056401;28;20048;-79
2023/10/05 06:55:07;;;;;;;12.73;2.20;;;14.30;99.90;;;;;;5056220;28;20060;-79
2023/10/05 06:57:36;;;;;;;10.45;2.40;;;14.30;99.90;;;;;;5073683;28;20040;-80
2023/10/05 07:00:40;;;;;;;9.55;2.38;;;14.30;99.90;;;;;;5056048;28;20039;-79
2023/10/05 07:03:01;;;;;;;10.25;2.17;;;14.30;99.90;;;;;;5068649;28;20056;-79
2023/10/05 07:05:29;;;;;;;15.75;3.38;;;14.30;99.90;;;;;;5071981;28;20469;-79
2023/10/05 07:07:55;;;;;;;9.32;2.53;;;14.40;99.90;;;;;;5053163;28;20106;-79
2023/10/05 07:10:20;;;;;;;8.82;2.00;;;14.50;99.90;;;;;;5060487;28;20036;-79
2023/10/05 07:12:46;;;;;;;11.50;2.47;;;14.50;99.90;;;;;;5071946;28;20039;-80
2023/10/05 07:15:21;;;;;;;10.70;2.13;;;14.50;99.90;;;;;;5073024;28;20039;-79
2023/10/05 07:17:50;;;;;;;11.50;2.72;;;14.40;99.90;;;;;;5073603;28;20501;-82
2023/10/05 07:20:20;;;;;;;9.65;2.13;;;14.50;99.90;;;;;;5070113;28;20048;-81
2023/10/05 07:22:47;;;;;;;10.25;2.22;;;14.60;99.90;;;;;;5073118;28;20380;-80
2023/10/05 07:25:19;;;;;;;8.82;2.40;;;14.70;99.90;;;;;;5056793;28;20040;-80
2023/10/05 07:27:47;;;;;;;10.43;2.63;;;14.70;99.90;;;;;;5071952;28;20045;-80
2023/10/05 07:30:14;;;;;;;9.40;2.50;;;14.80;99.90;;;;;;5071101;28;20467;-79
2023/10/05 07:32:40;;;;;;;11.48;2.33;;;14.80;99.90;;;;;;5056427;28;20436;-79
2023/10/05 07:35:07;;;;;;;10.13;2.67;;;14.70;99.90;;;;;;5056467;28;20068;-79
2023/10/05 07:37:36;;;;;;;10.15;2.45;;;14.70;99.90;;;;;;5055137;28;20511;-79
2023/10/05 07:40:07;;;;;;;13.05;2.45;;;14.80;99.90;;;;;;5055511;28;20059;-79
2023/10/05 07:42:33;;;;;;;18.07;3.07;;;14.80;99.90;;;;;;5055136;28;20048;-79
2023/10/05 07:44:59;;;;;;;16.15;2.75;;;14.80;99.90;;;;;;5056531;28;20508;-79
2023/10/05 07:47:25;;;;;;;12.95;3.00;;;14.80;99.90;;;;;;5053205;28;20033;-79
2023/10/05 07:49:55;;;;;;;9.60;2.67;;;14.80;99.90;;;;;;5054220;28;20024;-79
2023/10/05 07:52:21;;;;;;;14.60;2.95;;;14.80;99.90;;;;;;5070058;28;20048;-79
2023/10/05 07:54:47;;;;;;;14.27;3.03;;;14.80;99.90;;;;;;5071103;28;20037;-79
2023/10/05 07:57:14;;;;;;;16.98;2.90;;;14.90;99.90;;;;;;5046496;28;20535;-79
2023/10/05 07:59:40;;;;;;;14.73;2.75;;;14.80;99.90;;;;;;5041719;28;20123;-79
2023/10/05 08:02:07;;;;;;;14.73;2.53;;;14.80;99.90;;;;;;5072883;28;20400;-79
2023/10/05 08:04:32;;;;;;;13.20;2.45;;;14.80;99.90;;;;;;5070681;28;20037;-79
2023/10/05 08:06:59;;;;;;;13.45;3.60;;;14.80;99.90;;;;;;5055001;28;20097;-79
2023/10/05 08:09:26;;;;;;;13.00;2.78;;;14.80;99.90;;;;;;5070879;28;20115;-79
2023/10/05 08:11:53;;;;;;;18.08;3.30;;;14.80;99.90;;;;;;5070630;28;20485;-79
2023/10/05 08:14:25;;;;;;;14.02;2.85;;;14.90;99.90;;;;;;5054558;28;20039;-79
2023/10/05 08:16:55;;;;;;;15.95;2.63;;;14.80;99.90;;;;;;5052023;28;20481;-79
2023/10/05 08:19:24;;;;;;;14.05;3.13;;;14.90;99.90;;;;;;5067591;28;20432;-79
2023/10/05 08:21:53;;;;;;;13.88;3.00;;;14.90;99.90;;;;;;5072278;28;20370;-79
2023/10/05 08:24:20;;;;;;;13.45;2.78;;;14.90;99.90;;;;;;5088023;28;20043;-79
2023/10/05 08:26:48;;;;;;;11.35;2.67;;;14.90;99.90;;;;;;5071660;28;20041;-78
2023/10/05 08:29:16;;;;;;;15.45;3.60;;;14.90;99.90;;;;;;5070625;28;20068;-79
2023/10/05 08:31:44;;;;;;;13.30;3.03;;;14.90;99.90;;;;;;5055625;28;20032;-78
2023/10/05 08:34:17;;;;;;;16.33;2.88;;;14.90;99.90;;;;;;5053707;28;20036;-78
2023/10/05 08:36:43;;;;;;;12.43;2.70;;;14.90;99.90;;;;;;5051815;28;20428;-78
2023/10/05 08:39:09;;;;;;;12.35;2.88;;;14.90;99.90;;;;;;5064086;28;20040;-78
2023/10/05 08:41:35;;;;;;;13.85;3.25;;;14.90;99.90;;;;;;5053730;28;20409;-77
2023/10/05 08:44:14;;;;;;;13.75;2.97;;;14.90;99.90;;;;;;5054879;28;20443;-77
2023/10/05 08:46:44;;;;;;;14.02;2.80;;;14.90;99.90;;;;;;5053344;28;20089;-78
2023/10/05 08:49:11;;;;;;;15.52;2.88;;;14.90;99.90;;;;;;5068573;28;20393;-77
2023/10/05 08:51:40;;;;;;;14.95;2.63;;;14.90;99.90;;;;;;5071512;28;20045;-77
2023/10/05 08:54:11;;;;;;;13.15;3.42;;;14.90;99.90;;;;;;5070925;28;20047;-77
2023/10/05 08:56:42;;;;;;;9.95;3.10;;;14.90;99.90;;;;;;5071397;28;20417;-77
2023/10/05 08:59:13;;;;;;;17.98;3.47;;;15.00;99.90;;;;;;5064485;28;20044;-83
2023/10/05 09:01:42;;;;;;;14.38;3.17;;;15.00;99.90;;;;;;5055460;28;20040;-85
2023/10/05 09:04:21;;;;;;;14.32;3.30;;;15.00;99.90;;;;;;5070161;28;20037;-77
2023/10/05 09:06:57;;;;;;;11.85;3.20;;;15.00;99.90;;;;;;5053116;28;20047;-77
2023/10/05 09:09:37;;;;;;;12.23;2.97;;;15.10;99.90;;;;;;5070954;28;20505;-77
2023/10/05 09:12:17;;;;;;;10.82;2.90;;;15.20;99.90;;;;;;5051833;28;20162;-76
2023/10/05 09:14:45;;;;;;;10.75;2.83;;;15.30;99.90;;;;;;5069548;28;20036;-76
2023/10/05 09:17:11;;;;;;;12.05;3.30;;;15.40;99.90;;;;;;5071624;28;20434;-76
2023/10/05 09:19:37;;;;;;;10.68;2.72;;;15.50;99.90;;;;;;5067653;28;20123;-77
2023/10/05 09:22:10;;;;;;;11.57;3.35;;;15.50;99.90;;;;;;5069666;28;20037;-76
2023/10/05 09:24:37;;;;;;;11.65;2.60;;;15.60;99.90;;;;;;5054516;28;20043;-76
2023/10/05 09:27:17;;;;;;;13.23;3.10;;;15.60;99.90;;;;;;5071722;28;20043;-76
2023/10/05 09:29:43;;;;;;;15.48;3.80;;;15.60;99.90;;;;;;5039814;28;20373;-77
2023/10/05 09:32:25;;;;;;;9.68;2.97;;;15.70;99.90;;;;;;5070400;28;20119;-77
2023/10/05 09:34:55;;;;;;;15.53;3.37;;;15.70;99.90;;;;;;5056213;28;20070;-77
2023/10/05 09:37:24;;;;;;;10.85;2.75;;;15.80;99.90;;;;;;5071713;28;20049;-76
2023/10/05 09:39:53;;;;;;;11.45;2.80;;;15.80;99.90;;;;;;5053431;28;20174;-77
2023/10/05 09:42:26;;;;;;;10.32;2.72;;;15.70;99.90;;;;;;5053531;28;20056;-77
2023/10/05 09:44:53;;;;;;;14.18;3.40;;;15.70;99.90;;;;;;5069521;28;20416;-76
2023/10/05 09:47:25;;;;;;;13.02;3.10;;;15.70;99.90;;;;;;5054287;28;20060;-76
2023/10/05 09:49:58;;;;;;;10.75;2.40;;;15.60;99.90;;;;;;5070101;28;20041;-76
2023/10/05 09:52:24;;;;;;;10.18;2.63;;;15.60;99.90;;;;;;5070308;28;20374;-76
2023/10/05 09:54:50;;;;;;;9.85;2.67;;;15.60;99.90;;;;;;5053264;28;20036;-76
2023/10/05 09:57:20;;;;;;;7.10;2.03;;;15.60;99.90;;;;;;5071458;28;20051;-76
2023/10/05 09:59:57;;;;;;;10.40;2.50;;;15.60;99.90;;;;;;5073921;28;20112;-76
2023/10/05 10:02:34;;;;;;;7.85;2.22;;;15.60;99.90;;;;;;5074351;28;20059;-76
2023/10/05 10:05:25;;;;;;;8.52;2.20;;;15.60;99.90;;;;;;5056031;28;20493;-76
2023/10/05 10:07:55;;;;;;;8.55;2.47;;;15.60;99.90;;;;;;5041704;28;20048;-76
2023/10/05 10:10:24;;;;;;;9.82;2.17;;;15.60;99.90;;;;;;5055104;28;20033;-76
2023/10/05 10:12:52;;;;;;;6.75;2.40;;;15.70;99.90;;;;;;5056627;28;20040;-76
2023/10/05 10:15:32;;;;;;;6.75;1.80;;;15.70;99.90;;;;;;5072090;28;20086;-76
2023/10/05 10:18:37;;;;;;;7.22;1.92;;;15.70;99.90;;;;;;5074794;28;20037;-76
2023/10/05 10:20:56;;;;;;;6.47;2.78;;;15.70;99.90;;;;;;5068793;28;20048;-76
2023/10/05 10:23:25;;;;;;;7.15;2.10;;;15.80;99.90;;;;;;5055766;28;20082;-76
2023/10/05 10:26:05;;;;;;;8.00;2.28;;;15.80;99.90;;;;;;5044565;28;20036;-76
2023/10/05 10:31:19;;;;;;;9.13;2.35;;;15.80;99.90;;;;;;5071954;28;20492;-76
2023/10/05 10:33:50;;;;;;;9.45;2.47;;;15.90;99.90;;;;;;5056499;28;20040;-76
2023/10/05 10:36:19;;;;;;;9.88;2.65;;;15.90;99.90;;;;;;5056718;28;20074;-76
2023/10/05 10:38:50;;;;;;;11.30;2.72;;;16.00;99.90;;;;;;5074633;28;20036;-76
2023/10/05 10:41:17;;;;;;;11.70;3.05;;;16.00;99.90;;;;;;5055475;28;20051;-76
2023/10/05 10:43:52;;;;;;;10.82;2.72;;;16.10;99.90;;;;;;5061694;28;20028;-76
2023/10/05 10:46:30;;;;;;;10.05;2.80;;;16.10;99.90;;;;;;5073273;28;20119;-77
2023/10/05 10:48:57;;;;;;;13.35;4.03;;;16.20;99.90;;;;;;5056852;28;20050;-77
2023/10/05 10:51:27;;;;;;;12.13;3.38;;;16.10;99.90;;;;;;5070571;28;20046;-77
2023/10/05 10:53:56;;;;;;;13.55;3.85;;;16.10;99.90;;;;;;5071822;28;20043;-77
2023/10/05 10:56:27;;;;;;;12.85;3.10;;;16.20;99.90;;;;;;5055677;28;20057;-77
2023/10/05 10:59:09;;;;;;;11.07;2.85;;;16.10;99.90;;;;;;5056805;28;20416;-77
2023/10/05 11:01:42;;;;;;;11.63;2.83;;;16.20;99.90;;;;;;5077948;28;20407;-77
2023/10/05 11:04:25;;;;;;;12.50;3.05;;;16.30;99.90;;;;;;5069727;28;20041;-77
2023/10/05 11:06:59;;;;;;;12.23;3.10;;;16.30;99.90;;;;;;5061472;28;20119;-77
2023/10/05 11:09:35;;;;;;;10.50;3.25;;;16.40;99.90;;;;;;5073337;28;20072;-75
2023/10/05 11:12:11;;;;;;;13.10;3.15;;;16.30;99.90;;;;;;5073374;28;20047;-75
2023/10/05 11:14:45;;;;;;;12.30;3.00;;;16.30;99.90;;;;;;5051209;28;20500;-76
2023/10/05 11:17:23;;;;;;;13.48;3.38;;;16.30;99.90;;;;;;5068525;28;20037;-75
2023/10/05 11:19:49;;;;;;;12.13;3.00;;;16.30;99.90;;;;;;5063766;28;20037;-75
2023/10/05 11:22:23;;;;;;;14.00;3.15;;;16.40;99.90;;;;;;5052425;28;20045;-75
2023/10/05 11:25:14;;;;;;;10.05;2.78;;;16.50;99.90;;;;;;5066295;28;20048;-76
2023/10/05 11:27:42;;;;;;;11.65;2.88;;;16.50;99.90;;;;;;5051402;28;20119;-76
2023/10/05 11:30:08;;;;;;;13.63;2.83;;;16.60;99.90;;;;;;5053112;28;20065;-76
2023/10/05 11:32:34;;;;;;;10.93;3.25;;;16.70;99.90;;;;;;5071934;28;20083;-76
2023/10/05 11:35:05;;;;;;;11.63;3.00;;;16.70;99.90;;;;;;5054672;28;20040;-76
2023/10/05 11:37:32;;;;;;;13.30;3.10;;;16.90;99.90;;;;;;5062508;28;20066;-76
2023/10/05 11:40:04;;;;;;;13.68;3.25;;;16.80;99.90;;;;;;5053618;28;20040;-76
2023/10/05 11:42:39;;;;;;;;;;;16.90;99.90;;;;;;5051378;28;20037;-76
2023/10/05 11:45:13;;;;;;;12.90;2.63;;;16.90;99.90;;;;;;5059952;28;19967;-76
2023/10/05 11:47:45;;;;;;;9.52;2.42;;;16.80;99.90;;;;;;5055746;28;20044;-76
2023/10/05 11:53:12;;;;;;;10.73;3.03;;;16.60;99.90;;;;;;5011981;28;20041;-76
2023/10/05 11:55:39;;;;;;;9.70;2.08;;;16.50;99.90;;;;;;5043082;28;20447;-76
2023/10/05 11:58:08;;;;;;;7.55;1.80;;;16.40;99.90;;;;;;5071237;28;20044;-76
2023/10/05 12:00:35;;;;;;;6.90;1.98;;;16.30;99.90;;;;;;5053716;28;20071;-76
2023/10/05 12:03:01;;;;;;;5.63;2.03;;;16.30;99.90;;;;;;5068810;28;20489;-76
2023/10/05 12:05:29;;;;;;;9.32;2.22;;;16.30;99.90;;;;;;5054296;28;20155;-76
2023/10/05 12:07:59;;;;;;;7.70;1.80;;;16.30;99.90;;;;;;5054119;28;20130;-76
2023/10/05 12:10:25;;;;;;;7.95;2.08;;;16.40;99.90;;;;;;5068820;28;20032;-76
2023/10/05 12:12:50;;;;;;;8.73;1.95;;;16.40;99.90;;;;;;5064930;28;20481;-76
2023/10/05 12:15:17;;;;;;;10.13;2.05;;;16.50;99.90;;;;;;5074554;28;20040;-76
2023/10/05 12:17:48;;;;;;;9.38;2.10;;;16.60;99.90;;;;;;5055661;28;20040;-76
2023/10/05 12:20:14;;;;;;;11.40;2.58;;;16.60;99.90;;;;;;5055020;28;20044;-77
2023/10/05 12:22:41;;;;;;;9.32;2.00;;;16.50;99.90;;;;;;5070895;28;20507;-77
2023/10/05 12:25:08;;;;;;;9.52;3.17;;;16.50;99.90;;;;;;5072230;28;20044;-75
2023/10/05 12:27:36;;;;;;;9.98;2.80;;;16.70;99.90;;;;;;5068586;28;20174;-76
2023/10/05 12:30:10;;;;;;;13.48;2.88;;;16.70;99.90;;;;;;5071184;28;20410;-76
2023/10/05 12:32:40;;;;;;;13.35;2.88;;;16.80;99.90;;;;;;5069625;28;20044;-76
2023/10/05 12:35:13;;;;;;;13.02;2.80;;;16.80;99.90;;;;;;5063702;28;20062;-76
2023/10/05 12:37:44;;;;;;;9.95;2.47;;;16.90;99.90;;;;;;5051802;28;20090;-76
2023/10/05 12:40:19;;;;;;;13.43;2.67;;;16.90;99.90;;;;;;5053709;28;20044;-76
2023/10/05 12:42:54;;;;;;;11.55;2.95;;;16.90;99.90;;;;;;5055462;28;20071;-76
2023/10/05 12:45:22;;;;;;;10.00;2.63;;;17.00;99.90;;;;;;5062397;28;20110;-76
2023/10/05 12:47:55;;;;;;;12.82;2.40;;;17.00;99.90;;;;;;5041178;28;20063;-76
2023/10/05 12:50:25;;;;;;;9.82;2.50;;;17.00;99.90;;;;;;5049397;28;20037;-76
2023/10/05 12:52:52;;;;;;;12.30;2.58;;;17.00;99.90;;;;;;5068109;28;20048;-77
2023/10/05 12:55:19;;;;;;;12.23;2.60;;;16.90;99.90;;;;;;5070842;28;20528;-77
2023/10/05 12:57:46;;;;;;;12.20;2.90;;;16.80;99.90;;;;;;5051854;28;20119;-77
2023/10/05 13:00:19;;;;;;;13.38;2.78;;;16.80;99.90;;;;;;5054654;28;20045;-77
2023/10/05 13:03:05;;;;;;;8.75;2.28;;;16.70;99.90;;;;;;5040560;28;20172;-77
2023/10/05 13:05:31;;;;;;;9.70;2.38;;;16.70;99.90;;;;;;5055008;28;20045;-77
2023/10/05 13:08:04;;;;;;;12.68;2.60;;;16.60;99.90;;;;;;5067741;28;20032;-76
2023/10/05 13:10:32;;;;;;;11.68;2.78;;;16.60;99.90;;;;;;5066767;28;20470;-76
2023/10/05 13:13:09;;;;;;;11.55;2.50;;;16.40;99.90;;;;;;5071100;28;20381;-76
2023/10/05 13:15:35;;;;;;;11.18;2.85;;;16.40;99.90;;;;;;5051567;28;20037;-76
2023/10/05 13:18:17;;;;;;;8.48;2.28;;;16.30;99.90;;;;;;5061198;28;20147;-76
2023/10/05 13:20:44;;;;;;;12.38;3.08;;;16.30;99.90;;;;;;5053039;28;20045;-76
2023/10/05 13:23:11;;;;;;;12.95;2.60;;;16.20;99.90;;;;;;5071181;28;20037;-76
2023/10/05 13:25:40;;;;;;;6.95;2.40;;;16.10;99.90;;;;;;5053810;28;20044;-76